Time;durP1;ratioP1;P1;durP2;ratioP2;P2;SDS_P1;SDS_P2;PMS_P1;PMS_P2;Temp;Humidity;BMP_temperature;BMP_pressure;BME280_temperature;BME280_humidity;BME280_pressure;Samples;Min_cycle;Max_cycle;Signal;HPM_P1;HPM_P2
2022/11/28 00:01:06;;;;;;;3.33;1.50;;;6.80;99.90;;;;;;5046539;28;20044;-85
2022/11/28 00:03:32;;;;;;;4.63;1.60;;;6.80;99.90;;;;;;5042253;28;20024;-83
2022/11/28 00:06:06;;;;;;;3.20;2.03;;;6.80;99.90;;;;;;5046046;28;20488;-84
2022/11/28 00:08:32;;;;;;;4.18;2.40;;;6.80;99.90;;;;;;5042197;28;20461;-83
2022/11/28 00:11:02;;;;;;;3.75;2.10;;;6.80;99.90;;;;;;5028750;28;20021;-85
2022/11/28 00:13:27;;;;;;;4.28;1.83;;;6.90;99.90;;;;;;5043128;28;20025;-84
2022/11/28 00:15:57;;;;;;;3.65;1.90;;;6.90;99.90;;;;;;5040628;28;20051;-84
2022/11/28 00:18:23;;;;;;;4.90;2.28;;;6.90;99.90;;;;;;5042916;28;20033;-83
2022/11/28 00:20:49;;;;;;;3.85;2.30;;;6.90;99.90;;;;;;5046282;28;20024;-84
2022/11/28 00:23:14;;;;;;;4.13;2.15;;;6.90;99.90;;;;;;5045183;28;20507;-84
2022/11/28 00:25:40;;;;;;;2.90;1.52;;;6.90;99.90;;;;;;5030481;28;20094;-84
2022/11/28 00:28:05;;;;;;;4.07;1.40;;;6.90;99.90;;;;;;5044496;28;20546;-83
2022/11/28 00:30:35;;;;;;;4.00;1.65;;;6.90;99.90;;;;;;5048783;28;20021;-84
2022/11/28 00:33:01;;;;;;;5.20;2.50;;;6.90;99.90;;;;;;5042063;28;20037;-85
2022/11/28 00:35:26;;;;;;;4.55;2.63;;;7.00;99.90;;;;;;5027189;28;20104;-85
2022/11/28 00:37:52;;;;;;;3.95;2.10;;;7.00;99.90;;;;;;5026212;28;20032;-85
2022/11/28 00:40:18;;;;;;;2.75;1.63;;;7.00;99.90;;;;;;5043348;28;20025;-84
2022/11/28 00:42:43;;;;;;;3.67;1.70;;;7.00;99.90;;;;;;5041539;28;20033;-84
2022/11/28 00:45:09;;;;;;;3.42;1.17;;;7.00;99.90;;;;;;5043312;28;20025;-83
2022/11/28 00:47:34;;;;;;;3.58;1.85;;;7.00;99.90;;;;;;5040727;28;20029;-85
2022/11/28 00:50:00;;;;;;;3.30;1.67;;;7.00;99.90;;;;;;5044049;28;20454;-85
2022/11/28 00:52:26;;;;;;;3.00;1.55;;;7.00;99.90;;;;;;5026801;28;20021;-85
2022/11/28 00:54:51;;;;;;;2.90;1.65;;;7.00;99.90;;;;;;5044397;28;20397;-84
2022/11/28 00:57:17;;;;;;;3.33;1.20;;;7.00;99.90;;;;;;5041930;28;20461;-85
2022/11/28 00:59:43;;;;;;;3.00;1.42;;;7.10;99.90;;;;;;5044251;28;20116;-85
2022/11/28 01:02:08;;;;;;;3.40;1.63;;;7.10;99.90;;;;;;5043489;28;20068;-85
2022/11/28 01:04:34;;;;;;;3.28;1.70;;;7.10;99.90;;;;;;5044625;28;20074;-84
2022/11/28 01:07:01;;;;;;;3.40;1.73;;;7.20;99.90;;;;;;5053043;28;20362;-84
2022/11/28 01:09:26;;;;;;;2.88;1.50;;;7.20;99.90;;;;;;5041953;28;20103;-84
2022/11/28 01:11:53;;;;;;;3.25;1.67;;;7.20;99.90;;;;;;5056599;28;20511;-85
2022/11/28 01:14:21;;;;;;;3.72;1.80;;;7.20;99.90;;;;;;5045342;28;20021;-85
2022/11/28 01:16:47;;;;;;;3.33;1.95;;;7.10;99.90;;;;;;5050843;28;20243;-85
2022/11/28 01:19:13;;;;;;;3.28;1.70;;;7.20;99.90;;;;;;5046087;28;20025;-85
2022/11/28 01:21:39;;;;;;;4.20;1.42;;;7.20;99.90;;;;;;5040099;28;20401;-85
2022/11/28 01:24:05;;;;;;;2.70;1.23;;;7.20;99.90;;;;;;5042816;28;20029;-84
2022/11/28 01:26:31;;;;;;;2.53;1.30;;;7.10;99.90;;;;;;5041523;28;20037;-84
2022/11/28 01:28:58;;;;;;;2.78;1.60;;;7.20;99.90;;;;;;5042409;28;20100;-85
2022/11/28 01:31:26;;;;;;;4.35;2.65;;;7.20;99.90;;;;;;5046490;28;20043;-84
2022/11/28 01:33:53;;;;;;;4.22;2.28;;;7.30;99.90;;;;;;5046748;28;20029;-84
2022/11/28 01:36:20;;;;;;;5.05;2.53;;;7.30;99.90;;;;;;5057287;28;20508;-85
2022/11/28 01:38:47;;;;;;;4.13;2.47;;;7.20;99.90;;;;;;5056484;28;20078;-84
2022/11/28 01:41:14;;;;;;;4.72;2.08;;;7.30;99.90;;;;;;5047433;28;20025;-84
2022/11/28 01:44:28;;;;;;;3.63;2.10;;;7.30;99.90;;;;;;5048687;28;20378;-85
2022/11/28 01:46:53;;;;;;;4.78;2.20;;;7.30;99.90;;;;;;5044399;28;20745;-85
2022/11/28 01:49:24;;;;;;;3.83;2.63;;;7.30;99.90;;;;;;5048190;28;20025;-85
2022/11/28 01:51:54;;;;;;;5.32;2.72;;;7.30;99.90;;;;;;5049020;28;20033;-84
2022/11/28 01:54:21;;;;;;;5.13;2.08;;;7.30;99.90;;;;;;5030147;28;20110;-85
2022/11/28 01:56:53;;;;;;;4.38;2.80;;;7.30;99.90;;;;;;5033032;28;20045;-84
2022/11/28 01:59:21;;;;;;;3.53;2.00;;;7.20;99.90;;;;;;5031639;28;20090;-85
2022/11/28 02:01:47;;;;;;;4.05;1.95;;;7.30;99.90;;;;;;5045662;28;20131;-86
2022/11/28 02:04:13;;;;;;;4.63;2.42;;;7.30;99.90;;;;;;5052218;28;20113;-84
2022/11/28 02:06:40;;;;;;;3.45;2.10;;;7.20;99.90;;;;;;5055506;28;20029;-88
2022/11/28 02:09:11;;;;;;;4.60;2.47;;;7.30;99.90;;;;;;5047253;28;20278;-85
2022/11/28 02:11:44;;;;;;;4.20;2.95;;;7.20;99.90;;;;;;5049802;28;20025;-85
2022/11/28 02:14:41;;;;;;;5.80;2.38;;;7.20;99.90;;;;;;5029577;28;20072;-83
2022/11/28 02:17:28;;;;;;;2.90;1.83;;;7.30;99.90;;;;;;5047401;28;20539;-84
2022/11/28 02:20:31;;;;;;;3.78;2.00;;;7.20;99.90;;;;;;5044863;28;20108;-84
2022/11/28 02:23:31;;;;;;;4.45;2.00;;;7.30;99.90;;;;;;5029927;28;20056;-86
2022/11/28 02:26:10;;;;;;;4.43;2.33;;;7.30;99.90;;;;;;5046864;28;20040;-87
2022/11/28 02:28:48;;;;;;;3.15;1.65;;;7.30;99.90;;;;;;5059413;28;20033;-84
2022/11/28 02:31:55;;;;;;;3.47;1.60;;;7.30;99.90;;;;;;5044490;28;20025;-87
2022/11/28 02:34:36;;;;;;;3.80;1.75;;;7.30;99.90;;;;;;4972007;28;20046;-85
2022/11/28 02:37:17;;;;;;;3.15;1.55;;;7.30;99.90;;;;;;4971657;28;20104;-85
2022/11/28 02:40:02;;;;;;;4.07;1.77;;;7.30;99.90;;;;;;4972241;28;20030;-84
2022/11/28 02:42:49;;;;;;;2.42;1.27;;;7.40;99.90;;;;;;4972215;28;21192;-84
2022/11/28 02:45:40;;;;;;;3.55;2.28;;;7.30;99.90;;;;;;4971369;28;20041;-84
2022/11/28 02:48:12;;;;;;;3.40;1.42;;;7.30;99.90;;;;;;4988918;28;20034;-85
2022/11/28 02:50:54;;;;;;;3.97;2.00;;;7.30;99.90;;;;;;4971969;28;20089;-84
2022/11/28 02:53:23;;;;;;;4.05;2.42;;;7.30;99.90;;;;;;4971834;28;20031;-85
2022/11/28 02:55:51;;;;;;;3.78;2.13;;;7.30;99.90;;;;;;4971442;28;20026;-84
2022/11/28 02:58:17;;;;;;;2.47;1.17;;;7.30;99.90;;;;;;4988242;28;20045;-84
2022/11/28 03:00:48;;;;;;;3.65;2.00;;;7.30;99.90;;;;;;4972473;28;20386;-85
2022/11/28 03:03:56;;;;;;;2.97;2.20;;;7.40;99.90;;;;;;4971138;28;20424;-88
2022/11/28 03:06:35;;;;;;;2.78;1.35;;;7.40;99.90;;;;;;4985589;28;20122;-88
2022/11/28 03:09:49;;;;;;;2.42;1.10;;;7.40;99.90;;;;;;4955353;28;20063;-85
2022/11/28 03:12:43;;;;;;;3.70;1.20;;;7.40;99.90;;;;;;5023543;28;20195;-87
2022/11/28 03:15:10;;;;;;;3.60;1.15;;;7.30;99.90;;;;;;5061339;28;20109;-88
2022/11/28 03:17:45;;;;;;;2.05;0.80;;;7.30;99.90;;;;;;5031038;28;20029;-83
2022/11/28 03:20:22;;;;;;;2.65;1.20;;;7.30;99.90;;;;;;5026853;28;20493;-85
2022/11/28 03:22:53;;;;;;;2.40;1.33;;;7.30;99.90;;;;;;5044443;28;20048;-86
2022/11/28 03:25:30;;;;;;;3.70;1.92;;;7.30;99.90;;;;;;5027168;28;20036;-85
2022/11/28 03:27:55;;;;;;;3.80;1.92;;;7.30;99.90;;;;;;5043825;28;20116;-84
2022/11/28 03:30:28;;;;;;;5.75;3.60;;;7.30;99.90;;;;;;5027152;28;20115;-83
2022/11/28 03:32:56;;;;;;;3.75;2.35;;;7.30;99.90;;;;;;5029087;28;20025;-83
2022/11/28 03:35:27;;;;;;;3.15;2.28;;;7.30;99.90;;;;;;5053258;28;20057;-83
2022/11/28 03:37:59;;;;;;;3.42;1.98;;;7.30;99.90;;;;;;5029800;28;20071;-84
2022/11/28 03:40:31;;;;;;;3.83;2.40;;;7.30;99.90;;;;;;5053521;28;20146;-82
2022/11/28 03:43:08;;;;;;;5.95;3.00;;;7.20;99.90;;;;;;5046752;28;20051;-83
2022/11/28 03:45:39;;;;;;;4.57;2.55;;;7.20;99.90;;;;;;5042466;28;20021;-83
2022/11/28 03:48:22;;;;;;;3.85;2.72;;;7.20;99.90;;;;;;5040616;28;20036;-84
2022/11/28 03:51:12;;;;;;;4.28;2.75;;;7.20;99.90;;;;;;5044430;28;20029;-82
2022/11/28 03:53:44;;;;;;;3.70;2.20;;;7.20;99.90;;;;;;5043644;28;20037;-84
2022/11/28 03:56:20;;;;;;;3.78;1.88;;;7.20;99.90;;;;;;5042508;28;20053;-83
2022/11/28 03:59:16;;;;;;;5.57;3.55;;;7.20;99.90;;;;;;5044504;28;20025;-83
2022/11/28 04:02:03;;;;;;;5.43;3.08;;;7.20;99.90;;;;;;5041435;28;20046;-84
2022/11/28 04:05:00;;;;;;;3.45;1.88;;;7.20;99.90;;;;;;5042693;28;20044;-85
2022/11/28 04:07:31;;;;;;;5.15;2.92;;;7.20;99.90;;;;;;5025162;28;20099;-86
2022/11/28 04:10:11;;;;;;;;;;;7.20;99.90;;;;;;5044644;28;20025;-85
2022/11/28 04:12:51;;;;;;;5.93;2.65;;;7.20;99.90;;;;;;5028186;28;19909;-83
2022/11/28 04:15:35;;;;;;;4.25;2.65;;;7.20;99.90;;;;;;5042561;28;20025;-85
2022/11/28 04:18:16;;;;;;;3.35;1.95;;;7.20;99.90;;;;;;5058077;28;20497;-84
2022/11/28 04:20:54;;;;;;;3.97;2.30;;;7.20;99.90;;;;;;5039586;28;20115;-84
2022/11/28 04:23:21;;;;;;;4.28;2.13;;;7.20;99.90;;;;;;5044451;28;20056;-84
2022/11/28 04:26:04;;;;;;;3.47;2.20;;;7.20;99.90;;;;;;5043697;28;20033;-84
2022/11/28 04:28:33;;;;;;;4.00;1.58;;;7.20;99.90;;;;;;5043385;28;20025;-83
2022/11/28 04:31:02;;;;;;;4.18;2.15;;;7.20;99.90;;;;;;5041910;28;20032;-86
2022/11/28 04:33:31;;;;;;;3.33;1.63;;;7.20;99.90;;;;;;5045615;28;20408;-86
2022/11/28 04:35:58;;;;;;;4.00;1.92;;;7.20;99.90;;;;;;5025547;28;20029;-85
2022/11/28 04:38:27;;;;;;;4.10;2.10;;;7.20;99.90;;;;;;5041547;28;20040;-85
2022/11/28 04:41:03;;;;;;;5.13;2.95;;;7.20;99.90;;;;;;5026649;28;20029;-86
2022/11/28 04:43:34;;;;;;;4.72;2.55;;;7.30;99.90;;;;;;5043763;28;20047;-87
2022/11/28 04:46:05;;;;;;;5.07;2.90;;;7.30;99.90;;;;;;5041001;28;20018;-84
2022/11/28 04:48:32;;;;;;;3.28;2.05;;;7.20;99.90;;;;;;5057843;28;20393;-87
2022/11/28 04:51:16;;;;;;;4.35;2.33;;;7.20;99.90;;;;;;5043209;28;20405;-87
2022/11/28 04:54:29;;;;;;;4.10;2.75;;;7.20;99.90;;;;;;5043703;28;20052;-86
2022/11/28 04:57:02;;;;;;;6.50;2.35;;;7.30;99.90;;;;;;4970323;28;20066;-85
2022/11/28 04:59:30;;;;;;;6.72;2.55;;;7.20;99.90;;;;;;4970303;28;20029;-84
2022/11/28 05:02:01;;;;;;;5.05;2.72;;;7.30;99.90;;;;;;4971185;28;20046;-84
2022/11/28 05:04:26;;;;;;;5.55;2.42;;;7.30;99.90;;;;;;4988887;28;20034;-86
2022/11/28 05:07:01;;;;;;;4.45;2.38;;;7.30;99.90;;;;;;4958842;28;20077;-86
2022/11/28 05:09:26;;;;;;;3.40;1.60;;;7.20;99.90;;;;;;4974401;28;20049;-87
2022/11/28 05:11:52;;;;;;;2.90;1.88;;;7.20;99.90;;;;;;4990082;28;20038;-85
2022/11/28 05:14:18;;;;;;;3.42;2.00;;;7.30;99.90;;;;;;4989403;28;20038;-86
2022/11/28 05:16:43;;;;;;;3.25;1.73;;;7.20;99.90;;;;;;4974383;28;20081;-84
2022/11/28 05:19:10;;;;;;;4.25;1.40;;;7.20;99.90;;;;;;4974047;28;20105;-85
2022/11/28 05:21:35;;;;;;;4.10;2.30;;;7.20;99.90;;;;;;4989954;28;20047;-86
2022/11/28 05:24:01;;;;;;;6.15;2.58;;;7.30;99.90;;;;;;4974346;28;20034;-84
2022/11/28 05:26:31;;;;;;;3.47;2.05;;;7.20;99.90;;;;;;4974012;28;20037;-85
2022/11/28 05:28:57;;;;;;;4.18;2.38;;;7.30;99.90;;;;;;5048819;28;20029;-84
2022/11/28 05:31:23;;;;;;;4.63;2.53;;;7.30;99.90;;;;;;5045163;28;20028;-85
2022/11/28 05:33:48;;;;;;;3.72;2.03;;;7.30;99.90;;;;;;5029817;28;20037;-85
2022/11/28 05:36:16;;;;;;;4.25;2.75;;;7.30;99.90;;;;;;5040398;28;20025;-85
2022/11/28 05:38:43;;;;;;;2.63;1.63;;;7.30;99.90;;;;;;5049612;28;20043;-85
2022/11/28 05:41:16;;;;;;;4.18;1.85;;;7.30;99.90;;;;;;5031834;28;20033;-86
2022/11/28 05:43:42;;;;;;;5.63;2.28;;;7.30;99.90;;;;;;5045235;28;20083;-86
2022/11/28 05:46:08;;;;;;;3.67;1.95;;;7.30;99.90;;;;;;5032852;28;20049;-87
2022/11/28 05:48:34;;;;;;;2.70;1.48;;;7.30;99.90;;;;;;5041595;28;20525;-84
2022/11/28 05:51:03;;;;;;;4.20;1.88;;;7.40;99.90;;;;;;5044394;28;20033;-86
2022/11/28 05:53:28;;;;;;;3.08;1.75;;;7.30;99.90;;;;;;5044061;28;20155;-86
2022/11/28 05:55:54;;;;;;;3.17;1.88;;;7.30;99.90;;;;;;5030247;28;20127;-86
2022/11/28 05:58:20;;;;;;;2.47;1.58;;;7.30;99.90;;;;;;5048353;28;20032;-86
2022/11/28 06:00:46;;;;;;;4.85;2.28;;;7.30;99.90;;;;;;5045522;28;20029;-86
2022/11/28 06:03:11;;;;;;;3.67;1.90;;;7.40;99.90;;;;;;5045555;28;20037;-88
2022/11/28 06:05:39;;;;;;;3.45;1.65;;;7.30;99.90;;;;;;5048136;28;20025;-86
2022/11/28 06:08:05;;;;;;;3.05;2.20;;;7.30;99.90;;;;;;5044412;28;20029;-84
2022/11/28 06:10:31;;;;;;;3.13;1.50;;;7.40;99.90;;;;;;5044252;28;20412;-85
2022/11/28 06:12:56;;;;;;;3.33;1.92;;;7.40;99.90;;;;;;5043141;28;20034;-86
2022/11/28 06:15:22;;;;;;;3.10;1.30;;;7.30;99.90;;;;;;5045162;28;20017;-86
2022/11/28 06:17:47;;;;;;;2.63;1.40;;;7.40;99.90;;;;;;5044064;28;20053;-85
2022/11/28 06:20:13;;;;;;;2.47;1.40;;;7.40;99.90;;;;;;5043177;28;20021;-84
2022/11/28 06:22:39;;;;;;;2.70;1.80;;;7.40;99.90;;;;;;5044902;28;20568;-85
2022/11/28 06:25:05;;;;;;;3.95;1.35;;;7.40;99.90;;;;;;5045365;28;20021;-86
2022/11/28 06:27:30;;;;;;;4.07;1.52;;;7.40;99.90;;;;;;5042308;28;20075;-85
2022/11/28 06:29:56;;;;;;;2.45;1.20;;;7.40;99.90;;;;;;5052539;28;20492;-88
2022/11/28 06:32:22;;;;;;;2.90;1.55;;;7.40;99.90;;;;;;5026853;28;20485;-84
2022/11/28 06:34:47;;;;;;;2.33;1.35;;;7.40;99.90;;;;;;5032056;28;20036;-86
2022/11/28 06:37:13;;;;;;;3.53;1.38;;;7.40;99.90;;;;;;5048884;28;20036;-86
2022/11/28 06:39:38;;;;;;;2.60;1.10;;;7.40;99.90;;;;;;5046675;28;20082;-86
2022/11/28 06:42:04;;;;;;;2.13;1.10;;;7.40;99.90;;;;;;5045372;28;20119;-87
2022/11/28 06:44:30;;;;;;;2.50;0.80;;;7.40;99.90;;;;;;5043718;28;20450;-88
2022/11/28 06:46:56;;;;;;;2.00;0.88;;;7.40;99.90;;;;;;5042514;28;20358;-85
2022/11/28 06:49:21;;;;;;;1.90;0.88;;;7.40;99.90;;;;;;5026161;28;20025;-85
2022/11/28 06:51:47;;;;;;;3.60;1.30;;;7.40;99.90;;;;;;5044059;28;20030;-86
2022/11/28 06:54:13;;;;;;;4.15;1.38;;;7.40;99.90;;;;;;5045302;28;20052;-87
2022/11/28 06:56:40;;;;;;;2.00;1.02;;;7.40;99.90;;;;;;5031285;28;20059;-85
2022/11/28 06:59:05;;;;;;;2.42;1.15;;;7.40;99.90;;;;;;5048363;28;20028;-87
2022/11/28 07:01:33;;;;;;;2.45;1.17;;;7.40;99.90;;;;;;5043211;28;20108;-85
2022/11/28 07:03:58;;;;;;;2.92;1.27;;;7.40;99.90;;;;;;5042708;28;20037;-87
2022/11/28 07:06:26;;;;;;;2.03;1.10;;;7.40;99.90;;;;;;5046097;28;20086;-86
2022/11/28 07:08:52;;;;;;;2.47;1.25;;;7.40;99.90;;;;;;5044858;28;20025;-86
2022/11/28 07:11:27;;;;;;;2.08;1.10;;;7.40;99.90;;;;;;5046649;28;20040;-87
2022/11/28 07:13:53;;;;;;;1.73;0.75;;;7.40;99.90;;;;;;5044594;28;20163;-87
2022/11/28 07:16:22;;;;;;;3.00;1.20;;;7.40;99.90;;;;;;5044401;28;20151;-87
2022/11/28 07:18:48;;;;;;;3.53;2.25;;;7.50;99.90;;;;;;5040146;28;20029;-86
2022/11/28 07:21:15;;;;;;;2.15;1.02;;;7.40;99.90;;;;;;5040853;28;20048;-86
2022/11/28 07:23:42;;;;;;;2.25;1.00;;;7.40;99.90;;;;;;5039209;28;20386;-87
2022/11/28 07:26:09;;;;;;;2.50;1.30;;;7.40;99.90;;;;;;5045572;28;20074;-85
2022/11/28 07:28:35;;;;;;;2.30;1.27;;;7.40;99.90;;;;;;5038915;28;20075;-88
2022/11/28 07:31:08;;;;;;;2.58;1.83;;;7.40;99.90;;;;;;5046512;28;20037;-84
2022/11/28 07:33:34;;;;;;;2.75;1.70;;;7.50;99.90;;;;;;5042671;28;20033;-86
2022/11/28 07:36:22;;;;;;;2.97;1.23;;;7.50;99.90;;;;;;5041326;28;20045;-85
2022/11/28 07:38:58;;;;;;;2.58;1.45;;;7.50;99.90;;;;;;4983128;28;20130;-84
2022/11/28 07:41:25;;;;;;;2.80;1.45;;;7.40;99.90;;;;;;5031821;28;20037;-86
2022/11/28 07:43:54;;;;;;;2.40;1.40;;;7.40;99.90;;;;;;5038259;28;20045;-86
2022/11/28 07:46:20;;;;;;;2.47;1.33;;;7.40;99.90;;;;;;5033778;28;20062;-86
2022/11/28 07:48:47;;;;;;;3.15;2.17;;;7.40;99.90;;;;;;5051638;28;20824;-86
2022/11/28 07:51:24;;;;;;;2.70;1.58;;;7.40;99.90;;;;;;5036503;28;20123;-86
2022/11/28 07:53:50;;;;;;;3.13;2.05;;;7.40;99.90;;;;;;5036750;28;20035;-86
2022/11/28 07:56:19;;;;;;;2.80;1.83;;;7.50;99.90;;;;;;5030188;28;20119;-86
2022/11/28 07:58:46;;;;;;;4.15;1.85;;;7.40;99.90;;;;;;5025111;28;20033;-85
2022/11/28 08:01:15;;;;;;;2.97;1.80;;;7.40;99.90;;;;;;5026271;28;20033;-86
2022/11/28 08:03:41;;;;;;;3.13;1.80;;;7.50;99.90;;;;;;5045342;28;20102;-86
2022/11/28 08:06:08;;;;;;;2.58;1.67;;;7.50;99.90;;;;;;5045330;28;20456;-84
2022/11/28 08:08:33;;;;;;;3.63;2.88;;;7.50;99.90;;;;;;5027086;28;20037;-84
2022/11/28 08:11:01;;;;;;;2.90;2.10;;;7.50;99.90;;;;;;5041463;28;20024;-85
2022/11/28 08:13:27;;;;;;;2.90;1.98;;;7.50;99.90;;;;;;5023117;28;20383;-84
2022/11/28 08:15:54;;;;;;;2.13;1.38;;;7.50;99.90;;;;;;5043351;28;20107;-85
2022/11/28 08:18:19;;;;;;;2.42;1.63;;;7.50;99.90;;;;;;5042708;28;20120;-83
2022/11/28 08:20:48;;;;;;;3.25;2.42;;;7.50;99.90;;;;;;5043970;28;20025;-84
2022/11/28 08:23:15;;;;;;;2.72;1.73;;;7.50;99.90;;;;;;5042735;28;20119;-84
2022/11/28 08:25:41;;;;;;;2.75;1.70;;;7.50;99.90;;;;;;5044751;28;20040;-85
2022/11/28 08:28:07;;;;;;;2.72;1.48;;;7.50;99.90;;;;;;5041612;28;20384;-86
2022/11/28 08:30:33;;;;;;;2.95;1.85;;;7.50;99.90;;;;;;5028003;28;20396;-86
2022/11/28 08:32:58;;;;;;;2.28;1.20;;;7.50;99.90;;;;;;5038482;28;20036;-85
2022/11/28 08:35:24;;;;;;;2.80;1.48;;;7.50;99.90;;;;;;5042744;28;20041;-83
2022/11/28 08:37:50;;;;;;;2.75;1.75;;;7.50;99.90;;;;;;5035907;28;20025;-84
2022/11/28 08:40:15;;;;;;;2.90;1.63;;;7.60;99.90;;;;;;5044089;28;20032;-84
2022/11/28 08:42:41;;;;;;;2.00;1.17;;;7.60;99.90;;;;;;5028493;28;20041;-87
2022/11/28 08:45:09;;;;;;;2.13;1.65;;;7.50;99.90;;;;;;5046563;28;20021;-85
2022/11/28 08:47:34;;;;;;;3.47;1.60;;;7.60;99.90;;;;;;5045062;28;20048;-87
2022/11/28 08:50:00;;;;;;;3.30;1.50;;;7.60;99.90;;;;;;5047629;28;20484;-87
2022/11/28 08:52:26;;;;;;;2.40;1.65;;;7.60;99.90;;;;;;5031647;28;20540;-87
2022/11/28 08:54:52;;;;;;;2.53;1.50;;;7.60;99.90;;;;;;5048441;28;20030;-85
2022/11/28 08:57:17;;;;;;;2.38;1.50;;;7.60;99.90;;;;;;5026506;28;20039;-84
2022/11/28 08:59:43;;;;;;;2.55;1.63;;;7.60;99.90;;;;;;5046196;28;20048;-85
2022/11/28 09:02:11;;;;;;;2.60;1.70;;;7.60;99.90;;;;;;5045231;28;20413;-86
2022/11/28 09:04:37;;;;;;;2.42;1.38;;;7.60;99.90;;;;;;5031231;28;20032;-84
2022/11/28 09:07:03;;;;;;;3.00;1.95;;;7.60;99.90;;;;;;5030821;28;20120;-87
2022/11/28 09:09:29;;;;;;;2.60;1.50;;;7.60;99.90;;;;;;5041198;28;20037;-86
2022/11/28 09:11:54;;;;;;;3.70;2.28;;;7.60;99.90;;;;;;5044330;28;20154;-86
2022/11/28 09:14:20;;;;;;;3.47;1.92;;;7.60;99.90;;;;;;5040527;28;20021;-85
2022/11/28 09:16:46;;;;;;;2.90;1.80;;;7.70;99.90;;;;;;5049247;28;20036;-86
2022/11/28 09:19:12;;;;;;;2.53;1.00;;;7.70;99.90;;;;;;5047264;28;20021;-86
2022/11/28 09:21:38;;;;;;;1.77;0.93;;;7.60;99.90;;;;;;5049821;28;20428;-84
2022/11/28 09:24:04;;;;;;;2.35;1.17;;;7.60;99.90;;;;;;5065644;28;20064;-84
2022/11/28 09:26:30;;;;;;;2.90;1.40;;;7.70;99.90;;;;;;5060451;28;20156;-86
2022/11/28 09:28:55;;;;;;;4.20;1.55;;;7.70;99.90;;;;;;5064969;28;20028;-85
2022/11/28 09:31:21;;;;;;;2.47;1.17;;;7.70;99.90;;;;;;5038696;28;20131;-84
2022/11/28 09:33:48;;;;;;;2.10;1.17;;;7.70;99.90;;;;;;5050201;28;20066;-84
2022/11/28 09:36:22;;;;;;;2.65;1.90;;;7.80;99.90;;;;;;5057268;28;20625;-85
2022/11/28 09:38:48;;;;;;;3.05;1.50;;;7.80;99.90;;;;;;5036345;28;20059;-83
2022/11/28 09:41:48;;;;;;;2.53;2.13;;;7.70;99.90;;;;;;5050007;28;20063;-84
2022/11/28 09:44:30;;;;;;;2.40;1.30;;;7.80;99.90;;;;;;5047383;28;20044;-86
2022/11/28 09:46:59;;;;;;;2.70;1.50;;;7.80;99.90;;;;;;5049426;28;20473;-85
2022/11/28 09:49:46;;;;;;;2.45;1.52;;;7.80;99.90;;;;;;5056298;28;20118;-84
2022/11/28 09:52:25;;;;;;;2.60;1.63;;;7.90;99.90;;;;;;5037343;28;20047;-85
2022/11/28 09:55:19;;;;;;;2.50;1.75;;;7.90;99.90;;;;;;5034182;28;20042;-86
2022/11/28 09:57:47;;;;;;;2.42;1.30;;;7.90;99.90;;;;;;5050093;28;20117;-86
2022/11/28 10:00:21;;;;;;;2.45;1.20;;;7.90;99.90;;;;;;5032847;28;20104;-86
2022/11/28 10:03:15;;;;;;;2.13;1.35;;;7.90;99.90;;;;;;5049657;28;20123;-85
2022/11/28 10:05:54;;;;;;;2.58;1.27;;;7.90;99.90;;;;;;5058349;28;20131;-85
2022/11/28 10:08:42;;;;;;;3.08;1.70;;;7.90;99.90;;;;;;5050328;28;20043;-85
2022/11/28 10:11:19;;;;;;;2.30;1.23;;;7.80;99.90;;;;;;5058626;28;20032;-85
2022/11/28 10:14:38;;;;;;;3.00;1.10;;;7.90;99.90;;;;;;5049997;28;20064;-86
2022/11/28 10:17:17;;;;;;;1.73;0.60;;;7.90;99.90;;;;;;5024271;28;20044;-87
2022/11/28 10:19:50;;;;;;;2.40;1.17;;;7.90;99.90;;;;;;5050667;28;20036;-86
2022/11/28 10:22:21;;;;;;;2.80;1.17;;;7.90;99.90;;;;;;5049723;28;20052;-85
2022/11/28 10:24:52;;;;;;;2.92;0.98;;;7.90;99.90;;;;;;5033160;28;20045;-86
2022/11/28 10:27:17;;;;;;;1.98;1.00;;;8.00;99.90;;;;;;5056216;28;20043;-86
2022/11/28 10:29:51;;;;;;;1.77;0.80;;;8.00;99.90;;;;;;5067891;28;20481;-87
2022/11/28 10:32:20;;;;;;;2.80;0.80;;;8.00;99.90;;;;;;5048736;28;20040;-86
2022/11/28 10:34:52;;;;;;;1.95;1.00;;;8.00;99.90;;;;;;5068420;28;20073;-85
2022/11/28 10:37:26;;;;;;;2.13;1.10;;;8.00;99.90;;;;;;5053996;28;20025;-86
2022/11/28 10:39:53;;;;;;;2.00;0.85;;;8.00;99.90;;;;;;5065249;28;20492;-86
2022/11/28 10:42:48;;;;;;;2.20;0.98;;;8.00;99.90;;;;;;5075411;28;20037;-87
2022/11/28 10:45:33;;;;;;;2.35;0.90;;;8.00;99.90;;;;;;5026559;28;20033;-85
2022/11/28 10:48:30;;;;;;;1.90;0.82;;;8.10;99.90;;;;;;5046408;28;20077;-84
2022/11/28 10:51:18;;;;;;;2.60;1.02;;;8.10;99.90;;;;;;5048297;28;20104;-87
2022/11/28 10:54:17;;;;;;;2.38;1.17;;;8.10;99.90;;;;;;5064478;28;20442;-85
2022/11/28 10:56:48;;;;;;;2.40;0.98;;;8.10;99.90;;;;;;5022676;28;20032;-86
2022/11/28 10:59:38;;;;;;;2.13;1.05;;;8.20;99.90;;;;;;5048539;28;20024;-86
2022/11/28 11:02:38;;;;;;;2.25;1.05;;;8.20;99.90;;;;;;5065732;28;20149;-84
2022/11/28 11:05:06;;;;;;;1.80;1.08;;;8.20;99.90;;;;;;5056952;28;20036;-87
2022/11/28 11:07:32;;;;;;;2.10;1.05;;;8.20;99.90;;;;;;5064796;28;20028;-85
2022/11/28 11:10:12;;;;;;;1.73;0.80;;;8.20;99.90;;;;;;5047302;28;20287;-86
2022/11/28 11:12:38;;;;;;;;;;;8.20;99.90;;;;;;5076017;28;20028;-86
2022/11/28 11:15:35;;;;;;;2.00;0.75;;;8.20;99.90;;;;;;5064099;28;20272;-87
2022/11/28 11:18:04;;;;;;;1.70;0.80;;;8.20;99.90;;;;;;5024730;28;20068;-84
2022/11/28 11:20:39;;;;;;;1.88;0.88;;;8.20;99.90;;;;;;5048249;28;20033;-86
2022/11/28 11:23:20;;;;;;;1.60;0.80;;;8.20;99.90;;;;;;5065009;28;20057;-85
2022/11/28 11:25:57;;;;;;;1.70;0.80;;;8.20;99.90;;;;;;5045365;28;20090;-86
2022/11/28 11:28:42;;;;;;;1.85;1.00;;;8.20;99.90;;;;;;5063913;28;20028;-85
2022/11/28 11:31:19;;;;;;;2.13;1.15;;;8.30;99.90;;;;;;5046268;28;20052;-83
2022/11/28 11:33:47;;;;;;;2.80;1.00;;;8.30;99.90;;;;;;5060459;28;20063;-85
2022/11/28 11:36:33;;;;;;;1.73;0.80;;;8.40;99.90;;;;;;5060903;28;20047;-84
2022/11/28 11:39:13;;;;;;;1.58;0.80;;;8.30;99.90;;;;;;5061609;28;20511;-85
2022/11/28 11:41:59;;;;;;;1.70;0.80;;;8.30;99.90;;;;;;5049937;28;20086;-84
2022/11/28 11:44:33;;;;;;;1.85;0.80;;;8.40;99.90;;;;;;5064025;28;20020;-84
2022/11/28 11:47:07;;;;;;;2.38;0.90;;;8.40;99.90;;;;;;5065738;28;20465;-85
2022/11/28 11:49:36;;;;;;;2.78;1.02;;;8.40;99.90;;;;;;5064597;28;20070;-85
2022/11/28 11:52:12;;;;;;;1.63;0.70;;;8.40;99.90;;;;;;5066125;28;20037;-87
2022/11/28 11:54:46;;;;;;;2.05;0.80;;;8.40;99.90;;;;;;5045169;28;20067;-84
2022/11/28 11:57:14;;;;;;;2.25;0.80;;;8.40;99.90;;;;;;5063003;28;20473;-85
2022/11/28 11:59:44;;;;;;;2.60;1.20;;;8.40;99.90;;;;;;5046087;28;20067;-84
2022/11/28 12:03:00;;;;;;;3.17;1.00;;;8.40;99.90;;;;;;5063818;28;20037;-84
2022/11/28 12:05:58;;;;;;;3.47;1.00;;;8.40;99.90;;;;;;5027583;28;20036;-85
2022/11/28 12:08:49;;;;;;;3.15;0.88;;;8.40;99.90;;;;;;5049751;28;20121;-85
2022/11/28 12:11:23;;;;;;;3.05;1.35;;;8.40;99.90;;;;;;5064318;28;20082;-85
2022/11/28 12:13:49;;;;;;;2.78;1.20;;;8.40;99.90;;;;;;5062535;28;20033;-84
2022/11/28 12:16:41;;;;;;;3.13;0.95;;;8.40;99.90;;;;;;5063647;28;20036;-85
2022/11/28 12:19:25;;;;;;;2.90;1.10;;;8.50;99.90;;;;;;5061237;28;20025;-85
2022/11/28 12:22:40;;;;;;;2.53;1.27;;;8.40;99.90;;;;;;5059456;28;20078;-87
2022/11/28 12:25:23;;;;;;;2.60;1.10;;;8.40;99.90;;;;;;4988884;28;20117;-85
2022/11/28 12:27:58;;;;;;;3.30;1.27;;;8.40;99.90;;;;;;4988574;28;20077;-85
2022/11/28 12:30:25;;;;;;;2.25;1.10;;;8.50;99.90;;;;;;5005130;28;20044;-85
2022/11/28 12:33:38;;;;;;;2.30;1.00;;;8.50;99.90;;;;;;4994449;28;20131;-87
2022/11/28 12:36:16;;;;;;;2.13;0.85;;;8.40;99.90;;;;;;5004023;28;20039;-85
2022/11/28 12:38:57;;;;;;;2.65;1.10;;;8.50;99.90;;;;;;4989551;28;20062;-84
2022/11/28 12:41:54;;;;;;;2.50;1.27;;;8.40;99.90;;;;;;4986827;28;20585;-85
2022/11/28 12:44:38;;;;;;;2.17;1.27;;;8.50;99.90;;;;;;4987369;28;20108;-84
2022/11/28 12:47:25;;;;;;;2.60;1.20;;;8.50;99.90;;;;;;4988198;28;20111;-86
2022/11/28 12:50:13;;;;;;;3.33;1.45;;;8.50;99.90;;;;;;5005061;28;20034;-86
2022/11/28 12:52:45;;;;;;;2.55;1.20;;;8.50;99.90;;;;;;4989019;28;20599;-86
2022/11/28 12:55:49;;;;;;;3.08;1.20;;;8.60;99.90;;;;;;4999232;28;20510;-85
2022/11/28 12:58:21;;;;;;;2.35;1.30;;;8.60;99.90;;;;;;5061159;28;20029;-85
2022/11/28 13:01:11;;;;;;;2.70;1.23;;;8.60;99.90;;;;;;5044673;28;20051;-85
2022/11/28 13:04:15;;;;;;;2.30;1.10;;;8.60;99.90;;;;;;5037864;28;20052;-85
2022/11/28 13:07:22;;;;;;;2.88;1.75;;;8.60;99.90;;;;;;5042764;28;20660;-84
2022/11/28 13:09:59;;;;;;;2.40;1.10;;;8.60;99.90;;;;;;5024529;28;20029;-87
2022/11/28 13:13:12;;;;;;;2.38;1.48;;;8.60;99.90;;;;;;5008190;28;20083;-87
2022/11/28 13:16:12;;;;;;;2.53;1.40;;;8.60;99.90;;;;;;5026154;28;20064;-86
2022/11/28 13:18:56;;;;;;;2.22;1.27;;;8.60;99.90;;;;;;5005489;28;20037;-83
2022/11/28 13:21:42;;;;;;;3.42;1.60;;;8.60;99.90;;;;;;5005139;28;20753;-86
2022/11/28 13:24:37;;;;;;;2.40;1.45;;;8.50;99.90;;;;;;5042839;28;20135;-87
2022/11/28 13:27:25;;;;;;;3.03;1.65;;;8.60;99.90;;;;;;5047869;28;20060;-84
2022/11/28 13:30:15;;;;;;;3.35;1.48;;;8.60;99.90;;;;;;5028022;28;20131;-86
2022/11/28 13:32:45;;;;;;;;;;;8.60;99.90;;;;;;5031616;28;20029;-84